createdAt,value
2023-03-12T00:01:59.745Z,2.73
2023-03-12T00:04:27.043Z,4.22
2023-03-12T00:06:54.321Z,3.60
2023-03-12T00:09:20.921Z,7.68
2023-03-12T00:11:47.409Z,4.00
2023-03-12T00:14:13.897Z,3.30
2023-03-12T00:16:40.772Z,3.03
2023-03-12T00:19:07.277Z,2.85
2023-03-12T00:21:33.864Z,2.72
2023-03-12T00:24:00.366Z,3.55
2023-03-12T00:26:26.951Z,3.27
2023-03-12T00:28:53.845Z,2.60
2023-03-12T00:31:22.057Z,4.20
2023-03-12T00:33:51.469Z,3.97
2023-03-12T00:36:19.718Z,2.95
2023-03-12T00:38:46.334Z,3.60
2023-03-12T00:41:12.960Z,4.25
2023-03-12T00:43:39.445Z,3.20
2023-03-12T00:46:05.976Z,4.40
2023-03-12T00:48:32.924Z,4.43
2023-03-12T00:50:59.467Z,6.00
2023-03-12T00:53:26.331Z,3.35
2023-03-12T00:55:52.926Z,3.60
2023-03-12T00:58:19.457Z,5.32
2023-03-12T01:00:46.160Z,3.97
2023-03-12T01:03:13.472Z,3.40
2023-03-12T01:05:41.148Z,4.50
2023-03-12T01:08:09.271Z,3.97
2023-03-12T01:10:37.287Z,4.53
2023-03-12T01:13:03.987Z,3.90
2023-03-12T01:15:30.524Z,3.87
2023-03-12T01:17:56.990Z,4.70
2023-03-12T01:20:23.750Z,4.57
2023-03-12T01:22:51.344Z,4.70
2023-03-12T01:25:18.458Z,4.97
2023-03-12T01:27:45.321Z,4.13
2023-03-12T01:30:12.529Z,5.20
2023-03-12T01:32:39.203Z,5.13
2023-03-12T01:35:06.240Z,4.15
2023-03-12T01:37:33.285Z,3.88
2023-03-12T01:40:00.438Z,5.90
2023-03-12T01:42:27.077Z,4.85
2023-03-12T01:45:04.413Z,6.60
2023-03-12T01:47:34.038Z,6.10
2023-03-12T01:50:01.375Z,4.90
2023-03-12T01:52:32.440Z,3.80
2023-03-12T01:55:09.536Z,4.70
2023-03-12T01:57:55.984Z,3.20
2023-03-12T02:00:25.610Z,4.88
2023-03-12T02:02:56.249Z,4.70
2023-03-12T02:05:30.542Z,5.53
2023-03-12T02:07:57.671Z,4.75
2023-03-12T02:10:25.916Z,3.83
2023-03-12T02:12:53.207Z,4.05
2023-03-12T02:15:19.999Z,8.30
2023-03-12T02:17:46.692Z,3.67
2023-03-12T02:20:35.859Z,3.85
2023-03-12T02:23:12.891Z,5.30
2023-03-12T02:25:49.826Z,4.38
2023-03-12T02:28:19.622Z,4.20
2023-03-12T02:30:48.767Z,3.07
2023-03-12T02:33:16.135Z,3.10
2023-03-12T02:35:43.671Z,2.78
2023-03-12T02:38:32.974Z,4.80
2023-03-12T02:41:05.529Z,4.05
2023-03-12T02:43:32.460Z,4.20
2023-03-12T02:45:58.989Z,5.45
2023-03-12T02:48:25.574Z,4.53
2023-03-12T02:50:52.093Z,5.40
2023-03-12T02:53:18.571Z,4.32
2023-03-12T02:55:45.064Z,4.23
2023-03-12T02:58:11.725Z,5.15
2023-03-12T03:00:38.162Z,3.55
2023-03-12T03:03:04.652Z,3.17
2023-03-12T03:05:31.490Z,4.35
2023-03-12T03:07:57.989Z,2.60
2023-03-12T03:10:24.585Z,3.30
2023-03-12T03:12:51.590Z,2.70
2023-03-12T03:15:18.222Z,3.35
2023-03-12T03:17:44.753Z,4.43
2023-03-12T03:20:12.004Z,2.10
2023-03-12T03:22:39.220Z,2.97
2023-03-12T03:25:07.355Z,3.08
2023-03-12T03:27:34.042Z,3.25
2023-03-12T03:30:00.529Z,4.05
2023-03-12T03:32:27.430Z,3.40
2023-03-12T03:34:53.995Z,1.83
2023-03-12T03:37:20.479Z,1.65
2023-03-12T03:39:47.049Z,2.58
2023-03-12T03:42:13.568Z,2.92
2023-03-12T03:44:40.212Z,3.03
2023-03-12T03:47:06.934Z,2.60
2023-03-12T03:49:33.572Z,2.63
2023-03-12T03:52:00.188Z,3.80
2023-03-12T03:54:26.750Z,2.75
2023-03-12T03:56:53.192Z,5.73
2023-03-12T03:59:19.703Z,3.55
2023-03-12T04:01:46.258Z,4.88
2023-03-12T04:04:12.797Z,1.73
2023-03-12T04:06:39.772Z,2.28
2023-03-12T04:09:06.451Z,1.93
2023-03-12T04:11:32.944Z,2.58
2023-03-12T04:13:59.423Z,2.67
2023-03-12T04:16:27.251Z,4.35
2023-03-12T04:18:53.801Z,1.60
2023-03-12T04:21:20.404Z,1.63
2023-03-12T04:23:46.838Z,2.78
2023-03-12T04:26:13.432Z,1.75
2023-03-12T04:28:39.916Z,3.33
2023-03-12T04:31:07.958Z,8.55
2023-03-12T04:33:37.983Z,2.10
2023-03-12T04:36:05.667Z,3.65
2023-03-12T04:38:32.425Z,1.75
2023-03-12T04:41:05.465Z,4.32
2023-03-12T04:43:32.268Z,3.67
2023-03-12T04:45:59.159Z,3.87
2023-03-12T04:48:26.492Z,2.92
2023-03-12T04:50:53.444Z,2.22
2023-03-12T04:53:20.785Z,2.97
2023-03-12T04:55:47.267Z,2.67
2023-03-12T04:58:14.865Z,2.20
2023-03-12T05:00:41.912Z,2.38
2023-03-12T05:03:09.054Z,7.60
2023-03-12T05:05:36.029Z,4.47
2023-03-12T05:08:03.756Z,3.05
2023-03-12T05:10:30.420Z,4.13
2023-03-12T05:12:57.041Z,4.03
2023-03-12T05:15:23.640Z,5.05
2023-03-12T05:17:50.437Z,3.80
2023-03-12T05:20:17.804Z,4.30
2023-03-12T05:22:44.558Z,5.40
2023-03-12T05:25:11.556Z,6.80
2023-03-12T05:27:38.299Z,5.57
2023-03-12T05:30:06.774Z,2.97
2023-03-12T05:32:33.470Z,3.85
2023-03-12T05:35:00.139Z,5.37
2023-03-12T05:37:26.684Z,3.50
2023-03-12T05:39:54.520Z,6.18
2023-03-12T05:42:21.049Z,3.85
2023-03-12T05:44:47.546Z,2.00
2023-03-12T05:47:14.063Z,4.40
2023-03-12T05:49:40.809Z,4.68
2023-03-12T05:52:07.348Z,4.25
2023-03-12T05:54:33.878Z,3.05
2023-03-12T05:57:00.610Z,5.28
2023-03-12T05:59:27.390Z,5.43
2023-03-12T06:01:53.993Z,3.35
2023-03-12T06:04:20.533Z,1.90
2023-03-12T06:06:47.185Z,5.03
2023-03-12T06:09:13.803Z,4.65
2023-03-12T06:11:40.307Z,5.17
2023-03-12T06:14:06.839Z,4.15
2023-03-12T06:16:33.590Z,2.60
2023-03-12T06:19:02.599Z,6.32
2023-03-12T06:21:32.186Z,5.20
2023-03-12T06:23:59.639Z,3.63
2023-03-12T06:26:27.411Z,5.03
2023-03-12T06:28:54.304Z,7.43
2023-03-12T06:31:21.820Z,3.30
2023-03-12T06:33:48.460Z,5.45
2023-03-12T06:36:15.139Z,3.33
2023-03-12T06:38:41.782Z,4.20
2023-03-12T06:41:11.225Z,3.78
2023-03-12T06:43:39.255Z,5.18
2023-03-12T06:46:08.602Z,6.93
2023-03-12T06:48:36.882Z,3.90
2023-03-12T06:51:10.755Z,2.80
2023-03-12T06:53:40.395Z,4.35
2023-03-12T06:56:08.834Z,3.53
2023-03-12T06:58:35.362Z,4.68
2023-03-12T07:01:01.884Z,6.50
2023-03-12T07:03:28.397Z,8.57
2023-03-12T07:05:56.708Z,3.47
2023-03-12T07:08:23.624Z,2.88
2023-03-12T07:10:50.227Z,5.32
2023-03-12T07:13:16.902Z,3.67
2023-03-12T07:15:45.113Z,4.53
2023-03-12T07:18:12.273Z,4.93
2023-03-12T07:20:41.254Z,3.50
2023-03-12T07:23:08.649Z,7.22
2023-03-12T07:25:37.603Z,3.67
2023-03-12T07:28:04.452Z,5.10
2023-03-12T07:30:34.396Z,5.63
2023-03-12T07:33:05.871Z,3.63
2023-03-12T07:35:32.964Z,3.03
2023-03-12T07:38:01.051Z,3.27
2023-03-12T07:40:28.531Z,6.00
2023-03-12T07:42:55.250Z,3.65
2023-03-12T07:45:21.812Z,6.60
2023-03-12T07:47:48.443Z,5.05
2023-03-12T07:50:16.271Z,3.17
2023-03-12T07:52:43.129Z,5.43
2023-03-12T07:55:11.010Z,4.88
2023-03-12T07:57:38.347Z,5.85
2023-03-12T08:00:07.706Z,5.43
2023-03-12T08:02:34.548Z,3.97
2023-03-12T08:05:01.218Z,5.75
2023-03-12T08:07:32.333Z,8.35
2023-03-12T08:10:00.009Z,5.70
2023-03-12T08:12:27.149Z,6.95
2023-03-12T08:14:53.892Z,7.10
2023-03-12T08:17:20.643Z,4.15
2023-03-12T08:19:47.252Z,4.15
2023-03-12T08:22:13.745Z,4.90
2023-03-12T08:24:40.311Z,9.00
2023-03-12T08:27:06.833Z,6.73
2023-03-12T08:29:33.565Z,5.95
2023-03-12T08:32:04.943Z,5.80
2023-03-12T08:34:33.858Z,4.72
2023-03-12T08:37:00.766Z,5.38
2023-03-12T08:39:27.244Z,6.57
2023-03-12T08:41:55.543Z,4.55
2023-03-12T08:44:23.342Z,4.60
2023-03-12T08:46:50.233Z,6.55
2023-03-12T08:49:16.711Z,4.13
2023-03-12T08:51:43.236Z,4.20
2023-03-12T08:54:09.811Z,5.72
2023-03-12T08:56:42.379Z,4.40
2023-03-12T08:59:12.561Z,6.53
2023-03-12T09:01:43.041Z,5.35
2023-03-12T09:04:10.405Z,6.63
2023-03-12T09:06:38.627Z,4.75
2023-03-12T09:09:05.414Z,5.13
2023-03-12T09:11:33.840Z,5.07
2023-03-12T09:16:47.859Z,9.67
2023-03-12T09:19:14.378Z,6.22
2023-03-12T09:21:40.995Z,6.95
2023-03-12T09:24:08.261Z,8.05
2023-03-12T09:26:34.888Z,6.97
2023-03-12T09:29:01.562Z,8.60
2023-03-12T09:31:28.782Z,6.40
2023-03-12T09:33:55.304Z,9.48
2023-03-12T09:36:21.990Z,9.32
2023-03-12T09:38:48.508Z,8.05
2023-03-12T09:41:19.657Z,10.83
2023-03-12T09:43:52.934Z,10.82
2023-03-12T09:46:29.216Z,11.27
2023-03-12T09:49:01.670Z,9.25
2023-03-12T09:51:51.607Z,10.05
2023-03-12T09:54:23.931Z,10.23
2023-03-12T09:56:55.017Z,11.57
2023-03-12T09:59:22.382Z,11.70
2023-03-12T10:02:02.069Z,12.00
2023-03-12T10:04:58.135Z,11.52
2023-03-12T10:07:34.792Z,13.83
2023-03-12T10:10:55.824Z,16.92
2023-03-12T10:13:33.549Z,13.73
2023-03-12T10:16:08.591Z,10.70
2023-03-12T10:18:55.877Z,12.68
2023-03-12T10:21:32.010Z,10.73
2023-03-12T10:24:29.182Z,11.15
2023-03-12T10:26:58.309Z,14.23
2023-03-12T10:29:35.061Z,10.77
2023-03-12T10:32:07.455Z,12.05
2023-03-12T10:34:45.839Z,10.30
2023-03-12T10:37:22.612Z,14.15
2023-03-12T10:39:50.060Z,9.45
2023-03-12T10:42:29.222Z,9.95
2023-03-12T10:44:59.944Z,12.20
2023-03-12T10:47:38.240Z,11.40
2023-03-12T10:50:18.106Z,11.88
2023-03-12T10:52:46.362Z,11.10
2023-03-12T10:55:12.799Z,13.02
2023-03-12T10:57:42.873Z,11.80
2023-03-12T11:00:13.648Z,10.13
2023-03-12T11:02:43.538Z,10.13
2023-03-12T11:05:25.900Z,9.38
2023-03-12T11:07:52.940Z,11.43
2023-03-12T11:10:25.219Z,14.05
2023-03-12T11:12:58.577Z,12.07
2023-03-12T11:15:40.821Z,11.52
2023-03-12T11:18:25.104Z,12.57
2023-03-12T11:21:12.695Z,11.38
2023-03-12T11:24:15.259Z,11.15
2023-03-12T11:27:03.298Z,11.90
2023-03-12T11:29:33.358Z,12.25
2023-03-12T11:32:17.156Z,11.18
2023-03-12T11:34:49.559Z,13.73
2023-03-12T11:37:53.589Z,10.38
2023-03-12T11:40:54.230Z,13.70
2023-03-12T11:43:42.819Z,14.98
2023-03-12T11:46:44.771Z,11.23
2023-03-12T11:49:26.369Z,10.45
2023-03-12T11:52:02.036Z,7.68
2023-03-12T11:54:47.897Z,14.67
2023-03-12T11:57:57.105Z,14.27
2023-03-12T12:00:39.091Z,13.65
2023-03-12T12:03:42.871Z,9.32
2023-03-12T12:06:12.287Z,13.25
2023-03-12T12:08:48.081Z,10.33
2023-03-12T12:11:32.497Z,12.68
2023-03-12T12:14:44.064Z,9.63
2023-03-12T12:17:29.764Z,9.35
2023-03-12T12:20:22.257Z,8.95
2023-03-12T12:22:58.797Z,13.93
2023-03-12T12:25:55.806Z,11.80
2023-03-12T12:28:59.912Z,11.88
2023-03-12T12:31:56.969Z,12.70
2023-03-12T12:34:36.325Z,11.15
2023-03-12T12:37:18.871Z,14.87
2023-03-12T12:40:18.064Z,10.30
2023-03-12T12:43:04.455Z,11.02
2023-03-12T12:45:31.228Z,16.25
2023-03-12T12:48:03.850Z,15.15
2023-03-12T12:50:36.834Z,12.93
2023-03-12T12:53:23.160Z,14.32
2023-03-12T12:56:01.126Z,18.23
2023-03-12T12:58:59.021Z,14.93
2023-03-12T13:01:27.852Z,15.60
2023-03-12T13:04:01.786Z,14.80
2023-03-12T13:06:30.211Z,15.52
2023-03-12T13:08:56.716Z,12.48
2023-03-12T13:11:27.350Z,14.82
2023-03-12T13:14:03.622Z,19.02
2023-03-12T13:16:46.514Z,14.90
2023-03-12T13:19:16.079Z,9.80
2023-03-12T13:22:10.551Z,10.50
2023-03-12T13:24:44.995Z,20.17
2023-03-12T13:27:36.519Z,17.52
2023-03-12T13:30:27.914Z,14.87
2023-03-12T13:32:57.554Z,15.68
2023-03-12T13:35:24.321Z,19.17
2023-03-12T13:37:53.492Z,18.05
2023-03-12T13:40:29.233Z,19.52
2023-03-12T13:43:02.773Z,16.07
2023-03-12T13:45:31.902Z,17.90
2023-03-12T13:48:02.094Z,16.45
2023-03-12T13:50:30.330Z,15.45
2023-03-12T13:53:25.918Z,22.50
2023-03-12T13:56:10.734Z,15.60
2023-03-12T13:58:57.352Z,15.15
2023-03-12T14:01:29.437Z,18.23
2023-03-12T14:04:00.431Z,17.83
2023-03-12T14:06:30.313Z,13.45
2023-03-12T14:09:39.268Z,17.63
2023-03-12T14:12:19.345Z,13.95
2023-03-12T14:14:51.815Z,14.20
2023-03-12T14:17:24.456Z,17.58
2023-03-12T14:20:23.220Z,12.63
2023-03-12T14:22:59.001Z,15.80
2023-03-12T14:25:37.788Z,11.52
2023-03-12T14:28:12.544Z,17.15
2023-03-12T14:30:57.673Z,13.07
2023-03-12T14:33:27.268Z,14.75
2023-03-12T14:36:01.668Z,19.83
2023-03-12T14:38:34.540Z,14.73
2023-03-12T14:41:13.621Z,12.82
2023-03-12T14:43:42.534Z,10.30
2023-03-12T14:46:21.553Z,10.82
2023-03-12T14:48:50.637Z,11.43
2023-03-12T14:51:24.406Z,13.32
2023-03-12T14:53:51.838Z,14.20
2023-03-12T14:56:35.153Z,13.77
2023-03-12T14:59:21.481Z,13.75
2023-03-12T15:01:48.357Z,12.70
2023-03-12T15:04:18.342Z,12.90
2023-03-12T15:06:51.260Z,17.92
2023-03-12T15:09:28.208Z,19.70
2023-03-12T15:11:58.421Z,13.82
2023-03-12T15:14:28.222Z,12.97
2023-03-12T15:16:56.022Z,17.25
2023-03-12T15:19:31.394Z,12.50
2023-03-12T15:21:58.278Z,11.10
2023-03-12T15:24:25.303Z,20.98
2023-03-12T15:26:51.873Z,14.23
2023-03-12T15:29:29.285Z,10.43
2023-03-12T15:31:58.864Z,14.68
2023-03-12T15:34:39.254Z,19.88
2023-03-12T15:37:40.947Z,19.13
2023-03-12T15:40:22.043Z,17.03
2023-03-12T15:42:49.775Z,13.02
2023-03-12T15:45:32.075Z,12.75
2023-03-12T15:47:58.709Z,13.60
2023-03-12T15:50:36.753Z,10.30
2023-03-12T15:53:06.679Z,11.73
2023-03-12T15:55:35.658Z,17.00
2023-03-12T15:58:02.991Z,12.10
2023-03-12T16:00:44.637Z,9.23
2023-03-12T16:03:17.308Z,13.30
2023-03-12T16:05:44.612Z,12.50
2023-03-12T16:08:11.520Z,13.82
2023-03-12T16:10:38.978Z,14.50
2023-03-12T16:13:05.793Z,13.68
2023-03-12T16:15:36.122Z,16.23
2023-03-12T16:18:03.009Z,15.33
2023-03-12T16:20:30.198Z,19.65
2023-03-12T16:22:56.887Z,12.93
2023-03-12T16:25:23.843Z,14.77
2023-03-12T16:27:54.799Z,17.23
2023-03-12T16:30:31.322Z,16.10
2023-03-12T16:33:00.268Z,13.70
2023-03-12T16:35:28.311Z,14.70
2023-03-12T16:37:55.757Z,11.43
2023-03-12T16:40:32.953Z,15.52
2023-03-12T16:43:03.367Z,16.23
2023-03-12T16:45:33.397Z,10.00
2023-03-12T16:48:03.510Z,11.75
2023-03-12T16:50:30.716Z,14.57
2023-03-12T16:52:58.006Z,17.48
2023-03-12T16:55:44.207Z,17.37
2023-03-12T16:58:13.271Z,15.50
2023-03-12T17:00:40.556Z,14.10
2023-03-12T17:03:07.088Z,17.00
2023-03-12T17:05:33.628Z,14.50
2023-03-12T17:08:00.165Z,15.00
2023-03-12T17:10:26.789Z,20.52
2023-03-12T17:12:53.833Z,15.15
2023-03-12T17:15:33.361Z,16.38
2023-03-12T17:18:03.657Z,15.88
2023-03-12T17:20:36.071Z,15.57
2023-03-12T17:23:03.928Z,21.88
2023-03-12T17:25:33.001Z,15.73
2023-03-12T17:28:00.110Z,16.25
2023-03-12T17:30:29.170Z,13.82
2023-03-12T17:33:04.729Z,16.03
2023-03-12T17:35:31.896Z,16.83
2023-03-12T17:37:58.827Z,16.42
2023-03-12T17:40:25.493Z,17.25
2023-03-12T17:42:52.293Z,11.93
2023-03-12T17:45:18.794Z,10.83
2023-03-12T17:47:45.458Z,16.60
2023-03-12T17:50:12.476Z,12.55
2023-03-12T17:52:38.999Z,18.15
2023-03-12T17:55:06.533Z,13.38
2023-03-12T17:57:33.415Z,8.50
2023-03-12T17:59:59.905Z,11.93
2023-03-12T18:02:26.472Z,8.52
2023-03-12T18:04:53.062Z,15.50
2023-03-12T18:07:19.550Z,14.70
2023-03-12T18:09:46.088Z,11.10
2023-03-12T18:12:12.758Z,6.53
2023-03-12T18:14:39.443Z,8.80
2023-03-12T18:17:06.258Z,9.23
2023-03-12T18:19:35.182Z,12.70
2023-03-12T18:22:01.987Z,8.47
2023-03-12T18:24:28.601Z,8.48
2023-03-12T18:26:55.166Z,5.20
2023-03-12T18:29:21.639Z,7.65
2023-03-12T18:31:48.116Z,2.65
2023-03-12T18:34:14.591Z,4.37
2023-03-12T18:36:41.092Z,8.95
2023-03-12T18:39:07.760Z,7.30
2023-03-12T18:41:34.204Z,5.55
2023-03-12T18:44:00.713Z,3.22
2023-03-12T18:46:28.095Z,4.17
2023-03-12T18:48:54.808Z,5.10
2023-03-12T18:51:21.354Z,3.50
2023-03-12T18:53:47.794Z,5.28
2023-03-12T18:56:14.879Z,5.28
2023-03-12T18:58:41.468Z,3.27
2023-03-12T19:01:08.036Z,4.40
2023-03-12T19:03:36.634Z,3.97
2023-03-12T19:06:08.554Z,5.20
2023-03-12T19:08:37.289Z,3.58
2023-03-12T19:11:09.610Z,11.23
2023-03-12T19:13:36.418Z,4.10
2023-03-12T19:16:06.051Z,2.42
2023-03-12T19:18:32.516Z,4.82
2023-03-12T19:20:59.093Z,2.70
2023-03-12T19:23:25.633Z,2.63
2023-03-12T19:25:52.221Z,3.03
2023-03-12T19:28:18.869Z,2.90
2023-03-12T19:30:45.384Z,7.32
2023-03-12T19:33:12.111Z,6.68
2023-03-12T19:35:39.850Z,4.23
2023-03-12T19:38:06.380Z,5.60
2023-03-12T19:40:34.150Z,4.68
2023-03-12T19:43:02.205Z,4.75
2023-03-12T19:45:29.096Z,6.00
2023-03-12T19:47:55.765Z,8.70
2023-03-12T19:50:23.077Z,4.43
2023-03-12T19:52:49.763Z,6.10
2023-03-12T19:55:16.454Z,7.78
2023-03-12T19:57:43.097Z,11.70
2023-03-12T20:00:12.192Z,8.73
2023-03-12T20:02:39.418Z,4.57
2023-03-12T20:05:07.336Z,7.88
2023-03-12T20:07:34.016Z,9.20
2023-03-12T20:10:00.606Z,6.50
2023-03-12T20:12:27.437Z,10.53
2023-03-12T20:14:53.937Z,7.20
2023-03-12T20:17:20.416Z,10.25
2023-03-12T20:19:46.888Z,10.30
2023-03-12T20:22:13.507Z,4.28
2023-03-12T20:24:40.245Z,10.67
2023-03-12T20:27:06.780Z,11.25
2023-03-12T20:29:33.389Z,10.40
2023-03-12T20:31:59.954Z,11.80
2023-03-12T20:34:26.519Z,10.68
2023-03-12T20:36:53.052Z,7.93
2023-03-12T20:39:19.817Z,13.02
2023-03-12T20:41:46.312Z,7.07
2023-03-12T20:44:12.944Z,14.40
2023-03-12T20:46:39.442Z,12.75
2023-03-12T20:49:05.980Z,5.40
2023-03-12T20:51:32.477Z,11.02
2023-03-12T20:53:59.029Z,13.45
2023-03-12T20:56:25.583Z,12.93
2023-03-12T20:58:52.339Z,10.88
2023-03-12T21:01:18.882Z,10.37
2023-03-12T21:03:45.758Z,20.38
2023-03-12T21:06:12.319Z,12.60
2023-03-12T21:08:38.854Z,13.15
2023-03-12T21:11:06.767Z,11.88
2023-03-12T21:13:33.286Z,8.37
2023-03-12T21:15:59.828Z,8.15
2023-03-12T21:18:26.402Z,15.32
2023-03-12T21:20:53.135Z,16.70
2023-03-12T21:23:19.905Z,9.98
2023-03-12T21:25:46.496Z,8.53
2023-03-12T21:28:13.060Z,11.68
2023-03-12T21:30:39.618Z,12.45
2023-03-12T21:33:07.275Z,11.95
2023-03-12T21:35:33.764Z,10.73
2023-03-12T21:38:00.369Z,9.73
2023-03-12T21:40:27.007Z,13.52
2023-03-12T21:42:53.538Z,16.58
2023-03-12T21:45:19.966Z,8.73
2023-03-12T21:47:46.395Z,14.82
2023-03-12T21:50:13.013Z,10.07
2023-03-12T21:52:42.913Z,7.65
2023-03-12T21:55:10.123Z,13.55
2023-03-12T21:57:36.632Z,12.50
2023-03-12T22:00:04.333Z,15.13
2023-03-12T22:02:31.706Z,12.10
2023-03-12T22:05:01.362Z,16.42
2023-03-12T22:07:30.983Z,12.10
2023-03-12T22:09:57.668Z,17.17
2023-03-12T22:12:24.334Z,19.38
2023-03-12T22:14:51.056Z,17.40
2023-03-12T22:17:17.783Z,17.15
2023-03-12T22:19:44.477Z,14.90
2023-03-12T22:22:11.207Z,11.30
2023-03-12T22:24:38.025Z,11.70
2023-03-12T22:27:07.355Z,12.37
2023-03-12T22:29:34.510Z,16.00
2023-03-12T22:32:01.170Z,13.90
2023-03-12T22:34:29.421Z,12.63
2023-03-12T22:36:55.987Z,8.93
2023-03-12T22:39:22.462Z,9.83
2023-03-12T22:41:52.968Z,14.45
2023-03-12T22:44:19.638Z,16.10
2023-03-12T22:46:46.350Z,20.90
2023-03-12T22:49:12.956Z,18.65
2023-03-12T22:51:39.458Z,11.80
2023-03-12T22:54:06.022Z,11.50
2023-03-12T22:56:32.535Z,15.13
2023-03-12T22:58:59.505Z,12.60
2023-03-12T23:01:26.646Z,12.05
2023-03-12T23:03:53.176Z,15.73
2023-03-12T23:06:22.842Z,12.52
2023-03-12T23:08:49.628Z,9.27
2023-03-12T23:11:17.347Z,11.73
2023-03-12T23:13:45.257Z,11.27
2023-03-12T23:16:17.526Z,14.77
2023-03-12T23:18:44.881Z,9.25
2023-03-12T23:21:17.809Z,9.25
2023-03-12T23:23:45.087Z,14.35
2023-03-12T23:26:15.533Z,15.05
2023-03-12T23:28:42.088Z,15.43
2023-03-12T23:31:10.570Z,14.75
2023-03-12T23:33:37.841Z,14.48
2023-03-12T23:36:10.948Z,12.35
2023-03-12T23:38:38.265Z,10.60
2023-03-12T23:41:07.778Z,12.83
2023-03-12T23:43:34.574Z,8.40
2023-03-12T23:46:03.190Z,8.68
2023-03-12T23:48:31.625Z,12.40
2023-03-12T23:51:09.296Z,14.80
2023-03-12T23:53:37.181Z,9.70
2023-03-12T23:56:05.963Z,10.48
2023-03-12T23:58:33.223Z,11.73
